createdAt,value
2022-10-17T00:00:38.359Z,3.28
2022-10-17T00:05:31.229Z,3.05
2022-10-17T00:10:24.469Z,2.80
2022-10-17T00:12:52.030Z,2.90
2022-10-17T00:15:20.782Z,3.45
2022-10-17T00:17:47.771Z,2.80
2022-10-17T00:20:14.996Z,3.00
2022-10-17T00:22:42.132Z,3.20
2022-10-17T00:25:08.990Z,3.08
2022-10-17T00:27:37.197Z,3.05
2022-10-17T00:30:04.544Z,3.15
2022-10-17T00:32:31.289Z,3.00
2022-10-17T00:34:58.690Z,3.13
2022-10-17T00:37:25.822Z,3.10
2022-10-17T00:39:52.371Z,3.33
2022-10-17T00:44:47.449Z,3.20
2022-10-17T00:47:19.461Z,2.88
2022-10-17T00:49:47.366Z,2.78
2022-10-17T00:52:23.354Z,2.92
2022-10-17T00:54:58.468Z,3.00
2022-10-17T00:57:26.929Z,3.00
2022-10-17T00:59:56.615Z,2.70
2022-10-17T01:02:23.219Z,2.42
2022-10-17T01:07:17.877Z,3.03
2022-10-17T01:12:12.068Z,3.35
2022-10-17T01:15:09.632Z,3.00
2022-10-17T01:17:37.320Z,3.25
2022-10-17T01:23:11.769Z,3.28
2022-10-17T01:25:56.701Z,3.15
2022-10-17T01:29:05.396Z,3.00
2022-10-17T01:31:35.605Z,2.63
2022-10-17T01:34:20.642Z,3.08
2022-10-17T01:36:56.517Z,3.30
2022-10-17T01:39:46.963Z,3.50
2022-10-17T01:42:42.425Z,3.10
2022-10-17T01:45:19.585Z,2.80
2022-10-17T01:50:20.287Z,2.90
2022-10-17T01:52:52.970Z,3.20
2022-10-17T01:55:32.163Z,3.28
2022-10-17T01:58:09.074Z,3.15
2022-10-17T02:00:37.864Z,3.08
2022-10-17T02:03:07.619Z,3.25
2022-10-17T02:05:38.747Z,3.10
2022-10-17T02:08:06.028Z,3.15
2022-10-17T02:10:38.627Z,3.00
2022-10-17T02:13:38.189Z,3.15
2022-10-17T02:16:28.270Z,3.22
2022-10-17T02:19:23.867Z,2.72
2022-10-17T02:22:14.586Z,2.95
2022-10-17T02:24:41.133Z,3.25
2022-10-17T02:29:50.059Z,3.08
2022-10-17T02:32:25.045Z,3.15
2022-10-17T02:34:55.815Z,2.85
2022-10-17T02:37:27.357Z,2.97
2022-10-17T02:39:57.675Z,2.80
2022-10-17T02:42:26.226Z,3.00
2022-10-17T02:44:54.871Z,2.83
2022-10-17T02:47:37.865Z,2.97
2022-10-17T02:50:05.495Z,2.95
2022-10-17T02:52:37.037Z,2.90
2022-10-17T02:55:19.933Z,3.33
2022-10-17T02:57:54.220Z,3.10
2022-10-17T03:00:23.438Z,2.72
2022-10-17T03:02:52.270Z,3.42
2022-10-17T03:05:22.886Z,3.17
2022-10-17T03:07:49.604Z,3.10
2022-10-17T03:10:16.388Z,2.88
2022-10-17T03:12:42.959Z,2.67
2022-10-17T03:15:11.087Z,3.47
2022-10-17T03:17:38.189Z,3.00
2022-10-17T03:20:05.939Z,2.97
2022-10-17T03:22:32.884Z,3.13
2022-10-17T03:25:01.298Z,3.13
2022-10-17T03:27:28.323Z,3.05
2022-10-17T03:29:54.947Z,3.17
2022-10-17T03:32:21.391Z,3.20
2022-10-17T03:34:48.625Z,2.88
2022-10-17T03:37:15.489Z,3.28
2022-10-17T03:39:42.161Z,3.00
2022-10-17T03:42:08.853Z,3.53
2022-10-17T03:44:35.308Z,3.13
2022-10-17T03:47:01.743Z,3.20
2022-10-17T03:49:28.132Z,2.83
2022-10-17T03:54:20.853Z,3.55
2022-10-17T03:56:47.422Z,3.58
2022-10-17T03:59:17.200Z,4.18
2022-10-17T04:01:50.974Z,3.10
2022-10-17T04:04:18.517Z,3.03
2022-10-17T04:06:45.072Z,3.10
2022-10-17T04:09:11.544Z,3.47
2022-10-17T04:11:53.531Z,2.92
2022-10-17T04:14:21.472Z,3.83
2022-10-17T04:16:47.885Z,3.60
2022-10-17T04:19:20.428Z,3.30
2022-10-17T04:21:47.919Z,3.22
2022-10-17T04:24:14.919Z,3.03
2022-10-17T04:26:51.128Z,3.55
2022-10-17T04:29:18.878Z,3.15
2022-10-17T04:31:48.353Z,3.38
2022-10-17T04:34:22.108Z,3.28
2022-10-17T04:36:48.754Z,3.50
2022-10-17T04:41:42.349Z,3.20
2022-10-17T04:44:10.594Z,3.20
2022-10-17T04:46:40.749Z,3.60
2022-10-17T04:49:07.241Z,3.70
2022-10-17T04:54:13.723Z,3.47
2022-10-17T04:56:42.677Z,3.53
2022-10-17T04:59:09.161Z,3.20
2022-10-17T05:01:37.643Z,3.28
2022-10-17T05:04:04.079Z,3.28
2022-10-17T05:06:31.452Z,3.45
2022-10-17T05:09:16.325Z,3.20
2022-10-17T05:11:43.553Z,3.53
2022-10-17T05:14:11.082Z,3.67
2022-10-17T05:16:38.037Z,4.20
2022-10-17T05:19:04.844Z,3.60
2022-10-17T05:21:37.398Z,3.10
2022-10-17T05:24:09.111Z,4.40
2022-10-17T05:26:35.630Z,3.45
2022-10-17T05:29:03.042Z,3.65
2022-10-17T05:31:32.075Z,3.80
2022-10-17T05:34:02.653Z,4.00
2022-10-17T05:36:31.572Z,3.97
2022-10-17T05:38:59.537Z,4.43
2022-10-17T05:41:27.263Z,4.35
2022-10-17T05:43:53.879Z,4.00
2022-10-17T05:46:29.925Z,3.50
2022-10-17T05:48:56.397Z,3.67
2022-10-17T05:53:49.181Z,3.33
2022-10-17T05:56:22.078Z,3.50
2022-10-17T06:01:38.456Z,3.05
2022-10-17T06:04:05.096Z,3.45
2022-10-17T06:06:31.580Z,3.38
2022-10-17T06:08:58.116Z,3.28
2022-10-17T06:11:29.873Z,3.38
2022-10-17T06:16:25.298Z,3.10
2022-10-17T06:21:25.157Z,3.30
2022-10-17T06:23:54.281Z,3.83
2022-10-17T06:26:33.832Z,4.20
2022-10-17T06:29:00.624Z,3.65
2022-10-17T06:31:31.684Z,3.72
2022-10-17T06:33:58.205Z,3.58
2022-10-17T06:38:51.262Z,3.40
2022-10-17T06:41:27.425Z,3.35
2022-10-17T06:43:54.362Z,3.60
2022-10-17T06:46:39.749Z,3.33
2022-10-17T06:49:10.204Z,3.22
2022-10-17T06:51:56.897Z,3.78
2022-10-17T06:54:32.630Z,3.72
2022-10-17T06:57:10.251Z,4.05
2022-10-17T06:59:49.372Z,3.30
2022-10-17T07:02:20.418Z,3.42
2022-10-17T07:04:47.666Z,3.30
2022-10-17T07:07:14.053Z,3.45
2022-10-17T07:09:41.441Z,3.75
2022-10-17T07:12:08.485Z,3.47
2022-10-17T07:14:35.778Z,3.08
2022-10-17T07:17:02.404Z,3.70
2022-10-17T07:19:31.333Z,4.00
2022-10-17T07:21:57.727Z,3.67
2022-10-17T07:24:25.084Z,3.60
2022-10-17T07:26:57.006Z,3.70
2022-10-17T07:29:23.400Z,3.60
2022-10-17T07:32:25.197Z,3.55
2022-10-17T07:37:18.104Z,3.50
2022-10-17T07:39:51.255Z,3.78
2022-10-17T07:44:47.275Z,3.65
2022-10-17T07:47:13.844Z,3.10
2022-10-17T07:52:13.390Z,3.10
2022-10-17T07:54:40.059Z,3.22
2022-10-17T07:57:06.922Z,2.63
2022-10-17T07:59:34.645Z,3.10
2022-10-17T08:02:01.219Z,3.28
2022-10-17T08:07:05.395Z,3.33
2022-10-17T08:09:39.499Z,3.40
2022-10-17T08:12:05.906Z,3.17
2022-10-17T08:14:32.364Z,3.22
2022-10-17T08:19:25.426Z,3.00
2022-10-17T08:21:52.314Z,3.08
2022-10-17T08:24:18.686Z,2.75
2022-10-17T08:29:16.907Z,2.30
2022-10-17T08:31:47.434Z,2.45
2022-10-17T08:34:15.770Z,2.65
2022-10-17T08:36:42.239Z,2.55
2022-10-17T08:39:08.658Z,2.08
2022-10-17T08:41:52.255Z,2.28
2022-10-17T08:44:27.811Z,1.95
2022-10-17T08:46:59.032Z,2.33
2022-10-17T08:49:37.514Z,2.20
2022-10-17T08:52:11.379Z,1.77
2022-10-17T08:54:45.968Z,2.03
2022-10-17T08:57:17.435Z,2.20
2022-10-17T08:59:45.794Z,2.03
2022-10-17T09:02:43.048Z,2.28
2022-10-17T09:05:33.908Z,1.70
2022-10-17T09:08:31.846Z,1.90
2022-10-17T09:11:13.937Z,2.00
2022-10-17T09:14:22.024Z,2.08
2022-10-17T09:17:12.275Z,2.22
2022-10-17T09:19:51.143Z,2.10
2022-10-17T09:22:23.825Z,2.17
2022-10-17T09:24:58.213Z,2.30
2022-10-17T09:27:36.684Z,1.85
2022-10-17T09:30:46.726Z,1.70
2022-10-17T09:33:34.397Z,2.05
2022-10-17T09:36:13.162Z,2.10
2022-10-17T09:38:43.317Z,2.00
2022-10-17T09:41:43.093Z,2.05
2022-10-17T09:44:21.919Z,1.80
2022-10-17T09:47:13.314Z,2.78
2022-10-17T09:49:42.262Z,1.70
2022-10-17T09:52:16.287Z,1.63
2022-10-17T09:54:47.982Z,1.88
2022-10-17T09:57:16.325Z,1.77
2022-10-17T09:59:56.607Z,2.10
2022-10-17T10:02:25.161Z,2.00
2022-10-17T10:05:06.357Z,2.15
2022-10-17T10:07:37.822Z,2.20
2022-10-17T10:10:07.718Z,2.00
2022-10-17T10:12:39.384Z,2.08
2022-10-17T10:15:32.601Z,2.30
2022-10-17T10:17:59.115Z,3.00
2022-10-17T10:20:30.812Z,1.98
2022-10-17T10:23:18.352Z,2.20
2022-10-17T10:25:56.142Z,2.30
2022-10-17T10:28:50.423Z,2.33
2022-10-17T10:31:26.186Z,2.33
2022-10-17T10:33:56.805Z,2.63
2022-10-17T10:36:24.173Z,2.10
2022-10-17T10:38:54.964Z,2.95
2022-10-17T10:41:21.657Z,2.70
2022-10-17T10:43:51.449Z,2.60
2022-10-17T10:46:27.277Z,2.65
2022-10-17T10:48:53.685Z,2.40
2022-10-17T10:51:27.658Z,2.60
2022-10-17T10:54:16.981Z,2.50
2022-10-17T10:56:49.894Z,2.55
2022-10-17T10:59:51.832Z,2.83
2022-10-17T11:02:36.716Z,2.20
2022-10-17T11:05:20.699Z,2.47
2022-10-17T11:07:59.451Z,2.53
2022-10-17T11:10:46.434Z,2.33
2022-10-17T11:13:28.989Z,2.20
2022-10-17T11:16:07.340Z,2.10
2022-10-17T11:18:42.933Z,1.95
2022-10-17T11:21:20.615Z,1.80
2022-10-17T11:23:48.420Z,1.90
2022-10-17T11:26:39.939Z,2.10
2022-10-17T11:29:09.405Z,1.90
2022-10-17T11:31:40.743Z,1.75
2022-10-17T11:34:19.994Z,2.00
2022-10-17T11:36:50.997Z,1.98
2022-10-17T11:39:30.616Z,1.55
2022-10-17T11:42:09.736Z,1.65
2022-10-17T11:44:39.456Z,1.88
2022-10-17T11:47:39.758Z,1.70
2022-10-17T11:53:20.632Z,1.60
2022-10-17T11:55:47.794Z,1.85
2022-10-17T11:58:24.342Z,1.60
2022-10-17T12:03:39.694Z,2.13
2022-10-17T12:06:37.317Z,1.88
2022-10-17T12:09:51.973Z,1.50
2022-10-17T12:12:30.662Z,1.58
2022-10-17T12:15:23.263Z,1.35
2022-10-17T12:18:02.977Z,2.25
2022-10-17T12:20:37.166Z,1.30
2022-10-17T12:23:12.597Z,1.30
2022-10-17T12:26:09.437Z,1.30
2022-10-17T12:28:39.510Z,1.52
2022-10-17T12:31:15.529Z,1.30
2022-10-17T12:33:49.328Z,1.33
2022-10-17T12:36:28.103Z,1.20
2022-10-17T12:39:06.445Z,1.10
2022-10-17T12:41:39.068Z,1.15
2022-10-17T12:44:14.986Z,1.70
2022-10-17T12:47:03.389Z,1.45
2022-10-17T12:49:37.729Z,1.20
2022-10-17T12:52:16.206Z,1.30
2022-10-17T12:55:00.257Z,1.30
2022-10-17T12:57:41.113Z,1.30
2022-10-17T13:00:25.207Z,1.25
2022-10-17T13:02:55.852Z,1.40
2022-10-17T13:05:34.310Z,1.30
2022-10-17T13:08:03.693Z,1.60
2022-10-17T13:10:34.938Z,1.40
2022-10-17T13:13:20.414Z,1.35
2022-10-17T13:15:48.458Z,1.33
2022-10-17T13:18:29.193Z,1.52
2022-10-17T13:21:26.069Z,1.27
2022-10-17T13:23:54.227Z,1.42
2022-10-17T13:26:28.699Z,1.23
2022-10-17T13:29:13.803Z,1.35
2022-10-17T13:31:43.123Z,1.40
2022-10-17T13:34:21.137Z,1.50
2022-10-17T13:36:50.742Z,1.40
2022-10-17T13:39:32.042Z,1.67
2022-10-17T13:42:05.548Z,1.50
2022-10-17T13:44:37.074Z,1.60
2022-10-17T13:47:04.305Z,1.30
2022-10-17T13:49:40.741Z,1.70
2022-10-17T13:54:43.045Z,1.40
2022-10-17T13:57:30.622Z,1.23
2022-10-17T14:00:09.902Z,1.52
2022-10-17T14:02:41.879Z,1.45
2022-10-17T14:05:17.833Z,1.30
2022-10-17T14:08:21.863Z,1.70
2022-10-17T14:10:49.762Z,1.50
2022-10-17T14:13:26.140Z,1.40
2022-10-17T14:18:38.683Z,1.30
2022-10-17T14:24:13.971Z,1.50
2022-10-17T14:26:51.462Z,1.50
2022-10-17T14:29:27.002Z,1.50
2022-10-17T14:32:08.680Z,1.38
2022-10-17T14:34:40.537Z,1.50
2022-10-17T14:37:12.818Z,1.58
2022-10-17T14:39:39.714Z,1.50
2022-10-17T14:42:06.336Z,1.80
2022-10-17T14:44:35.378Z,1.50
2022-10-17T14:47:30.745Z,1.73
2022-10-17T14:50:06.134Z,1.42
2022-10-17T14:52:34.581Z,1.40
2022-10-17T14:55:21.851Z,1.50
2022-10-17T15:00:16.654Z,1.97
2022-10-17T15:02:44.291Z,1.85
2022-10-17T15:05:13.434Z,1.40
2022-10-17T15:07:41.002Z,1.70
2022-10-17T15:10:23.220Z,1.67
2022-10-17T15:12:57.475Z,1.90
2022-10-17T15:15:32.340Z,1.95
2022-10-17T15:17:58.782Z,1.75
2022-10-17T15:20:27.885Z,1.92
2022-10-17T15:22:54.652Z,1.48
2022-10-17T15:25:21.704Z,1.95
2022-10-17T15:27:48.142Z,1.60
2022-10-17T15:30:31.681Z,2.03
2022-10-17T15:32:59.241Z,2.08
2022-10-17T15:35:27.365Z,1.90
2022-10-17T15:37:53.923Z,1.30
2022-10-17T15:40:28.063Z,2.00
2022-10-17T15:42:56.227Z,2.40
2022-10-17T15:45:23.455Z,2.22
2022-10-17T15:47:56.139Z,2.17
2022-10-17T15:50:23.101Z,2.42
2022-10-17T15:52:53.294Z,1.60
2022-10-17T15:55:20.149Z,2.53
2022-10-17T15:57:48.534Z,1.88
2022-10-17T16:00:21.456Z,2.05
2022-10-17T16:02:49.174Z,3.05
2022-10-17T16:05:26.015Z,3.53
2022-10-17T16:07:53.608Z,2.20
2022-10-17T16:10:20.449Z,2.33
2022-10-17T16:12:49.658Z,2.58
2022-10-17T16:15:24.895Z,2.30
2022-10-17T16:17:52.763Z,2.42
2022-10-17T16:20:20.143Z,2.40
2022-10-17T16:22:47.387Z,2.13
2022-10-17T16:25:25.859Z,2.00
2022-10-17T16:27:55.054Z,2.15
2022-10-17T16:30:23.415Z,2.40
2022-10-17T16:32:49.931Z,2.30
2022-10-17T16:35:22.729Z,2.53
2022-10-17T16:37:49.232Z,2.30
2022-10-17T16:40:16.692Z,2.05
2022-10-17T16:42:44.720Z,2.42
2022-10-17T16:45:23.261Z,2.35
2022-10-17T16:47:50.540Z,2.28
2022-10-17T16:50:17.111Z,2.33
2022-10-17T16:52:43.614Z,2.40
2022-10-17T16:55:10.083Z,3.03
2022-10-17T16:57:36.600Z,2.33
2022-10-17T17:00:04.903Z,2.33
2022-10-17T17:02:31.740Z,2.40
2022-10-17T17:04:58.305Z,2.80
2022-10-17T17:07:29.483Z,2.17
2022-10-17T17:09:56.383Z,2.42
2022-10-17T17:12:22.865Z,2.63
2022-10-17T17:14:49.277Z,2.97
2022-10-17T17:17:24.649Z,2.50
2022-10-17T17:20:02.139Z,2.55
2022-10-17T17:24:54.873Z,2.35
2022-10-17T17:29:47.981Z,3.13
2022-10-17T17:34:41.055Z,2.60
2022-10-17T17:39:33.874Z,2.35
2022-10-17T17:44:26.626Z,2.28
2022-10-17T17:46:53.198Z,2.50
2022-10-17T17:49:19.631Z,2.67
2022-10-17T17:54:13.406Z,2.50
2022-10-17T17:56:39.919Z,2.45
2022-10-17T17:59:07.048Z,2.40
2022-10-17T18:01:38.150Z,2.50
2022-10-17T18:04:08.445Z,2.60
2022-10-17T18:06:36.152Z,2.40
2022-10-17T18:09:03.604Z,2.60
2022-10-17T18:11:30.115Z,2.58
2022-10-17T18:16:28.857Z,3.10
2022-10-17T18:18:55.477Z,2.92
2022-10-17T18:21:22.239Z,2.58
2022-10-17T18:23:49.716Z,2.80
2022-10-17T18:26:16.492Z,3.88
2022-10-17T18:28:43.779Z,2.85
2022-10-17T18:31:24.975Z,3.40
2022-10-17T18:33:53.433Z,3.10
2022-10-17T18:36:21.401Z,2.63
2022-10-17T18:38:48.145Z,2.92
2022-10-17T18:41:17.129Z,2.72
2022-10-17T18:43:45.145Z,3.13
2022-10-17T18:46:17.901Z,2.63
2022-10-17T18:48:46.118Z,2.55
2022-10-17T18:51:14.868Z,2.88
2022-10-17T18:53:46.354Z,3.58
2022-10-17T18:56:13.451Z,3.38
2022-10-17T18:58:40.689Z,2.95
2022-10-17T19:01:10.656Z,2.70
2022-10-17T19:03:37.495Z,3.00
2022-10-17T19:06:10.132Z,2.80
2022-10-17T19:08:38.033Z,2.70
2022-10-17T19:11:12.663Z,3.92
2022-10-17T19:13:39.997Z,5.00
2022-10-17T19:16:23.972Z,3.78
2022-10-17T19:18:57.199Z,3.90
2022-10-17T19:21:24.677Z,4.25
2022-10-17T19:24:00.217Z,4.00
2022-10-17T19:26:28.756Z,3.92
2022-10-17T19:28:55.281Z,3.97
2022-10-17T19:31:27.070Z,3.50
2022-10-17T19:33:55.715Z,3.30
2022-10-17T19:36:27.593Z,3.78
2022-10-17T19:38:57.448Z,3.10
2022-10-17T19:41:24.280Z,3.22
2022-10-17T19:43:50.934Z,3.00
2022-10-17T19:46:20.765Z,3.35
2022-10-17T19:48:49.919Z,3.17
2022-10-17T19:51:19.720Z,3.40
2022-10-17T19:53:47.002Z,2.88
2022-10-17T19:56:13.964Z,2.75
2022-10-17T19:58:46.758Z,3.17
2022-10-17T20:01:18.998Z,3.35
2022-10-17T20:03:46.654Z,3.20
2022-10-17T20:06:14.094Z,3.20
2022-10-17T20:08:41.163Z,2.95
2022-10-17T20:11:13.281Z,3.72
2022-10-17T20:13:40.628Z,3.70
2022-10-17T20:16:08.655Z,3.35
2022-10-17T20:18:35.276Z,3.55
2022-10-17T20:23:33.730Z,4.05
2022-10-17T20:26:13.524Z,3.00
2022-10-17T20:28:50.098Z,3.72
2022-10-17T20:31:16.967Z,2.80
2022-10-17T20:33:43.500Z,3.28
2022-10-17T20:38:37.572Z,2.95
2022-10-17T20:46:04.558Z,3.30
2022-10-17T20:48:37.398Z,3.08
2022-10-17T20:51:11.370Z,3.17
2022-10-17T20:53:38.075Z,3.30
2022-10-17T20:56:24.125Z,3.22
2022-10-17T20:59:04.774Z,5.35
2022-10-17T21:01:32.799Z,3.42
2022-10-17T21:04:10.527Z,3.70
2022-10-17T21:06:51.264Z,3.22
2022-10-17T21:09:18.105Z,3.10
2022-10-17T21:11:44.758Z,3.00
2022-10-17T21:14:12.045Z,3.10
2022-10-17T21:16:39.466Z,5.05
2022-10-17T21:19:06.243Z,3.20
2022-10-17T21:21:37.547Z,3.30
2022-10-17T21:24:06.470Z,3.20
2022-10-17T21:26:34.777Z,3.08
2022-10-17T21:29:05.805Z,3.63
2022-10-17T21:31:37.308Z,3.25
2022-10-17T21:34:13.904Z,2.92
2022-10-17T21:36:40.848Z,3.90
2022-10-17T21:41:39.082Z,3.28
2022-10-17T21:44:08.237Z,3.00
2022-10-17T21:46:34.621Z,3.10
2022-10-17T21:49:01.345Z,3.33
2022-10-17T21:51:28.366Z,3.15
2022-10-17T21:53:56.738Z,2.97
2022-10-17T21:56:28.017Z,3.85
2022-10-17T21:58:54.993Z,3.17
2022-10-17T22:01:27.277Z,3.45
2022-10-17T22:04:00.876Z,3.88
2022-10-17T22:06:45.279Z,3.10
2022-10-17T22:09:31.810Z,3.38
2022-10-17T22:11:58.278Z,3.63
2022-10-17T22:14:27.281Z,3.47
2022-10-17T22:16:54.266Z,2.88
2022-10-17T22:19:23.509Z,2.90
2022-10-17T22:21:50.339Z,3.53
2022-10-17T22:24:18.870Z,3.25
2022-10-17T22:26:45.425Z,3.53
2022-10-17T22:31:39.671Z,3.40
2022-10-17T22:34:07.188Z,3.22
2022-10-17T22:36:34.671Z,3.00
2022-10-17T22:39:01.690Z,2.83
2022-10-17T22:41:28.100Z,3.25
2022-10-17T22:43:54.543Z,2.80
2022-10-17T22:48:47.474Z,2.70
2022-10-17T22:51:14.436Z,2.90
2022-10-17T22:53:41.083Z,3.28
2022-10-17T22:56:11.389Z,2.83
2022-10-17T22:58:38.555Z,2.90
2022-10-17T23:01:06.363Z,4.82
2022-10-17T23:03:34.083Z,3.00
2022-10-17T23:06:00.941Z,3.10
2022-10-17T23:08:28.052Z,3.15
2022-10-17T23:10:54.526Z,3.13
2022-10-17T23:18:19.736Z,3.60
2022-10-17T23:20:46.256Z,2.90
2022-10-17T23:25:39.007Z,2.78
2022-10-17T23:28:08.029Z,3.05
2022-10-17T23:30:35.438Z,3.28
2022-10-17T23:33:01.924Z,2.80
2022-10-17T23:37:54.829Z,2.90
2022-10-17T23:42:47.618Z,2.88
2022-10-17T23:45:14.055Z,3.17
2022-10-17T23:50:07.158Z,2.85
2022-10-17T23:52:33.971Z,3.13
2022-10-17T23:55:00.362Z,3.13
2022-10-17T23:59:53.532Z,2.97
